createdAt,value
2022-10-28T00:02:34.891Z,8.63
2022-10-28T00:07:36.387Z,8.80
2022-10-28T00:12:38.451Z,9.80
2022-10-28T00:17:39.945Z,8.63
2022-10-28T00:22:42.856Z,8.98
2022-10-28T00:27:44.353Z,8.25
2022-10-28T00:32:45.839Z,9.10
2022-10-28T00:37:47.291Z,9.32
2022-10-28T00:42:48.743Z,9.50
2022-10-28T00:48:00.751Z,9.45
2022-10-28T00:53:21.961Z,10.45
2022-10-28T00:58:26.262Z,9.38
2022-10-28T01:03:27.836Z,10.32
2022-10-28T01:08:29.282Z,9.55
2022-10-28T01:13:48.920Z,10.27
2022-10-28T01:19:24.315Z,9.60
2022-10-28T01:24:57.609Z,10.10
2022-10-28T01:30:21.441Z,11.85
2022-10-28T01:40:38.213Z,9.85
2022-10-28T01:46:05.683Z,9.30
2022-10-28T01:51:16.960Z,9.07
2022-10-28T01:56:24.941Z,10.32
2022-10-28T02:01:29.532Z,10.75
2022-10-28T02:06:32.885Z,10.68
2022-10-28T02:11:44.754Z,11.40
2022-10-28T02:16:51.306Z,8.90
2022-10-28T02:22:17.512Z,9.32
2022-10-28T02:27:29.267Z,10.95
2022-10-28T02:32:34.704Z,10.93
2022-10-28T02:37:40.283Z,11.07
2022-10-28T02:42:49.195Z,10.60
2022-10-28T02:48:15.735Z,11.23
2022-10-28T02:53:22.147Z,10.60
2022-10-28T02:58:23.754Z,12.10
2022-10-28T03:03:25.314Z,10.40
2022-10-28T03:08:26.753Z,11.70
2022-10-28T03:13:28.420Z,11.93
2022-10-28T03:18:29.889Z,11.48
2022-10-28T03:23:31.264Z,11.98
2022-10-28T03:28:32.670Z,10.48
2022-10-28T03:33:34.056Z,11.57
2022-10-28T03:38:35.483Z,10.27
2022-10-28T03:43:36.951Z,10.38
2022-10-28T03:48:38.326Z,10.15
2022-10-28T03:53:39.730Z,10.20
2022-10-28T03:58:41.524Z,11.60
2022-10-28T04:03:42.956Z,9.68
2022-10-28T04:08:44.546Z,9.15
2022-10-28T04:13:46.230Z,8.63
2022-10-28T04:18:47.702Z,10.57
2022-10-28T04:23:49.261Z,12.93
2022-10-28T04:28:50.837Z,11.32
2022-10-28T04:33:52.292Z,10.65
2022-10-28T04:38:53.728Z,9.95
2022-10-28T04:43:56.335Z,11.02
2022-10-28T04:48:57.806Z,9.90
2022-10-28T04:53:59.310Z,10.52
2022-10-28T04:59:00.853Z,8.95
2022-10-28T05:04:02.370Z,8.40
2022-10-28T05:09:04.123Z,9.10
2022-10-28T05:14:05.613Z,8.65
2022-10-28T05:19:07.129Z,9.55
2022-10-28T05:24:08.797Z,8.05
2022-10-28T05:29:10.271Z,8.40
2022-10-28T05:34:11.800Z,7.85
2022-10-28T05:39:13.847Z,8.00
2022-10-28T05:44:15.330Z,8.68
2022-10-28T05:49:40.191Z,10.55
2022-10-28T05:54:41.589Z,9.60
2022-10-28T05:59:43.014Z,9.43
2022-10-28T06:04:44.458Z,10.88
2022-10-28T06:09:45.920Z,9.63
2022-10-28T06:14:45.824Z,10.98
2022-10-28T06:19:47.242Z,9.82
2022-10-28T06:25:03.348Z,10.25
2022-10-28T06:30:05.657Z,9.27
2022-10-28T06:35:07.236Z,10.93
2022-10-28T06:40:09.080Z,10.57
2022-10-28T06:45:10.550Z,9.77
2022-10-28T06:50:13.550Z,9.75
2022-10-28T06:55:14.978Z,11.48
2022-10-28T07:00:17.374Z,10.82
2022-10-28T07:05:19.024Z,10.55
2022-10-28T07:10:20.534Z,10.48
2022-10-28T07:15:25.208Z,9.88
2022-10-28T07:20:28.019Z,10.23
2022-10-28T07:25:31.705Z,10.15
2022-10-28T07:30:33.207Z,9.80
2022-10-28T07:35:34.666Z,9.85
2022-10-28T07:40:36.725Z,9.68
2022-10-28T07:45:38.299Z,11.55
2022-10-28T07:50:41.334Z,10.55
2022-10-28T07:55:42.814Z,10.65
2022-10-28T08:00:44.270Z,10.15
2022-10-28T08:05:46.206Z,10.88
2022-10-28T08:10:47.584Z,11.60
2022-10-28T08:15:55.763Z,11.50
2022-10-28T08:21:02.053Z,11.25
2022-10-28T08:31:09.587Z,11.63
2022-10-28T08:36:13.711Z,10.20
2022-10-28T08:41:43.079Z,9.93
2022-10-28T08:47:09.653Z,10.10
2022-10-28T08:52:35.052Z,11.27
2022-10-28T08:57:43.125Z,10.05
2022-10-28T09:02:57.415Z,10.82
2022-10-28T09:07:59.413Z,10.18
2022-10-28T09:13:26.101Z,9.82
2022-10-28T09:18:52.641Z,8.40
2022-10-28T09:24:13.206Z,10.13
2022-10-28T09:29:27.220Z,8.65
2022-10-28T09:34:37.956Z,8.68
2022-10-28T09:39:50.044Z,8.93
2022-10-28T09:45:00.925Z,9.52
2022-10-28T09:50:15.460Z,8.25
2022-10-28T09:55:20.743Z,9.30
2022-10-28T10:00:26.860Z,8.10
2022-10-28T10:05:33.435Z,7.32
2022-10-28T10:10:45.995Z,7.38
2022-10-28T10:15:57.653Z,6.40
2022-10-28T10:21:00.111Z,7.53
2022-10-28T10:26:09.485Z,6.00
2022-10-28T10:31:24.877Z,6.05
2022-10-28T10:36:29.285Z,6.10
2022-10-28T10:41:42.754Z,6.25
2022-10-28T10:46:44.271Z,5.03
2022-10-28T10:52:04.939Z,5.68
2022-10-28T10:57:31.855Z,6.30
2022-10-28T11:02:42.057Z,5.28
2022-10-28T11:07:50.810Z,4.60
2022-10-28T11:12:58.657Z,5.13
2022-10-28T11:18:21.985Z,4.70
2022-10-28T11:23:48.138Z,5.70
2022-10-28T11:28:58.502Z,5.63
2022-10-28T11:34:21.810Z,6.32
2022-10-28T11:39:42.628Z,6.20
2022-10-28T11:45:03.549Z,5.15
2022-10-28T11:50:40.619Z,6.15
2022-10-28T11:56:04.093Z,4.18
2022-10-28T12:01:33.697Z,5.70
2022-10-28T12:07:05.580Z,6.15
2022-10-28T12:12:28.445Z,6.28
2022-10-28T12:17:52.923Z,5.28
2022-10-28T12:23:00.765Z,4.60
2022-10-28T12:28:07.718Z,5.63
2022-10-28T12:33:33.069Z,4.15
2022-10-28T12:39:15.926Z,3.37
2022-10-28T12:44:20.966Z,4.47
2022-10-28T12:49:37.289Z,3.63
2022-10-28T12:54:53.903Z,5.85
2022-10-28T13:00:17.094Z,4.10
2022-10-28T13:05:29.341Z,4.70
2022-10-28T13:10:53.093Z,4.78
2022-10-28T13:16:34.589Z,4.68
2022-10-28T13:21:39.047Z,6.10
2022-10-28T13:27:11.219Z,5.40
2022-10-28T13:32:40.209Z,4.57
2022-10-28T13:37:47.847Z,4.72
2022-10-28T13:42:52.904Z,4.50
2022-10-28T13:48:47.616Z,3.58
2022-10-28T13:53:57.056Z,4.80
2022-10-28T13:59:03.141Z,4.53
2022-10-28T14:09:27.054Z,8.13
2022-10-28T14:14:32.324Z,5.10
2022-10-28T14:19:43.631Z,4.30
2022-10-28T14:25:25.849Z,4.72
2022-10-28T14:30:47.807Z,5.80
2022-10-28T14:36:08.667Z,5.15
2022-10-28T14:42:02.618Z,5.45
2022-10-28T14:47:32.014Z,5.28
2022-10-28T14:52:45.831Z,5.03
2022-10-28T14:57:49.659Z,5.75
2022-10-28T15:02:55.977Z,6.65
2022-10-28T15:08:06.352Z,5.03
2022-10-28T15:13:25.618Z,5.95
2022-10-28T15:18:29.850Z,5.85
2022-10-28T15:23:31.490Z,5.38
2022-10-28T15:28:35.161Z,5.40
2022-10-28T15:33:44.964Z,5.57
2022-10-28T15:39:15.284Z,5.10
2022-10-28T15:44:36.764Z,6.32
2022-10-28T15:49:44.892Z,6.85
2022-10-28T15:54:58.022Z,6.70
2022-10-28T16:00:25.447Z,5.00
2022-10-28T16:05:38.743Z,5.65
2022-10-28T16:10:46.301Z,7.32
2022-10-28T16:15:59.400Z,4.82
2022-10-28T16:21:01.543Z,6.63
2022-10-28T16:26:05.755Z,6.18
2022-10-28T16:31:17.108Z,9.00
2022-10-28T16:36:18.619Z,7.95
2022-10-28T16:41:20.614Z,7.05
2022-10-28T16:46:22.131Z,7.03
2022-10-28T16:51:31.443Z,6.82
2022-10-28T16:56:34.908Z,6.10
2022-10-28T17:01:39.107Z,5.93
2022-10-28T17:06:45.187Z,5.47
2022-10-28T17:16:52.677Z,5.00
2022-10-28T17:21:57.413Z,5.68
2022-10-28T17:27:03.766Z,6.13
2022-10-28T17:32:08.676Z,6.45
2022-10-28T17:37:10.428Z,7.38
2022-10-28T17:42:13.646Z,9.95
2022-10-28T17:47:15.102Z,7.57
2022-10-28T17:52:16.854Z,7.35
2022-10-28T17:57:28.822Z,6.15
2022-10-28T18:02:30.398Z,5.45
2022-10-28T18:07:35.239Z,5.88
2022-10-28T18:12:39.122Z,5.53
2022-10-28T18:17:42.631Z,5.90
2022-10-28T18:22:44.111Z,6.63
2022-10-28T18:27:45.600Z,6.88
2022-10-28T18:32:48.588Z,8.18
2022-10-28T18:37:50.132Z,10.32
2022-10-28T18:42:54.695Z,6.35
2022-10-28T18:48:05.664Z,5.68
2022-10-28T18:53:07.578Z,8.65
2022-10-28T18:58:15.420Z,7.53
2022-10-28T19:03:22.192Z,6.30
2022-10-28T19:08:23.860Z,7.40
2022-10-28T19:13:25.665Z,8.07
2022-10-28T19:18:31.290Z,8.00
2022-10-28T19:23:35.911Z,8.02
2022-10-28T19:28:42.639Z,7.40
2022-10-28T19:33:47.501Z,5.85
2022-10-28T19:38:50.441Z,9.48
2022-10-28T19:44:03.552Z,8.13
2022-10-28T19:49:07.813Z,6.57
2022-10-28T19:54:18.857Z,5.95
2022-10-28T19:59:24.809Z,7.15
2022-10-28T20:09:42.361Z,7.63
2022-10-28T20:14:43.976Z,6.18
2022-10-28T20:19:45.482Z,6.40
2022-10-28T20:24:48.485Z,6.53
2022-10-28T20:29:51.409Z,5.25
2022-10-28T20:34:53.121Z,7.30
2022-10-28T20:40:07.355Z,5.97
2022-10-28T20:45:12.753Z,7.07
2022-10-28T20:50:16.560Z,6.57
2022-10-28T20:55:18.196Z,5.18
2022-10-28T21:00:21.240Z,5.05
2022-10-28T21:05:22.752Z,5.88
2022-10-28T21:10:27.835Z,5.43
2022-10-28T21:15:29.792Z,5.43
2022-10-28T21:20:31.361Z,5.95
2022-10-28T21:25:36.492Z,4.50
2022-10-28T21:30:38.052Z,6.43
2022-10-28T21:35:39.896Z,5.55
2022-10-28T21:40:41.532Z,6.60
2022-10-28T21:45:43.150Z,6.55
2022-10-28T21:50:52.894Z,7.85
2022-10-28T21:56:02.539Z,5.18
2022-10-28T22:01:12.575Z,5.40
2022-10-28T22:06:14.470Z,6.60
2022-10-28T22:11:21.370Z,5.68
2022-10-28T22:16:23.193Z,5.93
2022-10-28T22:21:27.599Z,5.68
2022-10-28T22:26:30.677Z,5.00
2022-10-28T22:31:32.887Z,5.75
2022-10-28T22:36:34.367Z,5.85
2022-10-28T22:41:35.946Z,4.72
2022-10-28T22:46:37.363Z,4.60
2022-10-28T22:51:38.924Z,4.97
2022-10-28T22:56:41.115Z,4.88
2022-10-28T23:01:42.506Z,4.78
2022-10-28T23:06:44.210Z,4.97
2022-10-28T23:11:45.639Z,4.32
2022-10-28T23:16:48.537Z,4.20
2022-10-28T23:21:49.976Z,5.15
2022-10-28T23:26:51.388Z,4.65
2022-10-28T23:31:52.853Z,5.35
2022-10-28T23:36:54.609Z,4.78
2022-10-28T23:41:56.074Z,4.55
2022-10-28T23:46:57.691Z,5.18
2022-10-28T23:51:59.184Z,5.20
2022-10-28T23:57:00.626Z,5.72
